createdAt,value
2022-08-08T00:00:58.023Z,1011.84
2022-08-08T00:01:58.000Z,1011.83
2022-08-08T00:02:58.029Z,1011.82
2022-08-08T00:03:58.005Z,1011.81
2022-08-08T00:04:57.970Z,1011.83
2022-08-08T00:05:58.000Z,1011.84
2022-08-08T00:06:57.967Z,1011.86
2022-08-08T00:07:57.953Z,1011.88
2022-08-08T00:08:57.932Z,1011.87
2022-08-08T00:09:57.929Z,1011.77
2022-08-08T00:10:57.928Z,1011.79
2022-08-08T00:11:57.897Z,1011.83
2022-08-08T00:12:57.897Z,1011.85
2022-08-08T00:13:57.890Z,1011.85
2022-08-08T00:14:57.886Z,1011.83
2022-08-08T00:15:57.862Z,1011.92
2022-08-08T00:16:57.849Z,1011.78
2022-08-08T00:17:57.835Z,1011.84
2022-08-08T00:18:57.828Z,1011.86
2022-08-08T00:19:57.815Z,1011.81
2022-08-08T00:20:57.809Z,1011.82
2022-08-08T00:21:57.807Z,1011.85
2022-08-08T00:22:57.786Z,1011.8
2022-08-08T00:23:57.775Z,1011.85
2022-08-08T00:24:57.768Z,1011.83
2022-08-08T00:25:57.762Z,1011.8
2022-08-08T00:26:57.749Z,1011.79
2022-08-08T00:27:57.728Z,1011.81
2022-08-08T00:28:57.722Z,1011.79
2022-08-08T00:29:57.711Z,1011.75
2022-08-08T00:30:57.701Z,1011.77
2022-08-08T00:31:57.690Z,1011.77
2022-08-08T00:32:57.684Z,1011.81
2022-08-08T00:33:57.670Z,1011.79
2022-08-08T00:34:57.657Z,1011.74
2022-08-08T00:35:57.644Z,1011.78
2022-08-08T00:36:57.641Z,1011.76
2022-08-08T00:37:57.629Z,1011.75
2022-08-08T00:38:57.619Z,1011.79
2022-08-08T00:39:57.614Z,1011.76
2022-08-08T00:40:57.611Z,1011.8
2022-08-08T00:41:57.586Z,1011.8
2022-08-08T00:42:57.586Z,1011.8
2022-08-08T00:43:57.574Z,1011.8
2022-08-08T00:44:57.562Z,1011.82
2022-08-08T00:45:57.559Z,1011.85
2022-08-08T00:46:57.537Z,1011.81
2022-08-08T00:47:57.530Z,1011.78
2022-08-08T00:48:57.510Z,1011.8
2022-08-08T00:49:57.501Z,1011.8
2022-08-08T00:50:57.497Z,1011.76
2022-08-08T00:51:57.488Z,1011.81
2022-08-08T00:52:57.480Z,1011.8
2022-08-08T00:53:57.461Z,1011.81
2022-08-08T00:54:57.448Z,1011.81
2022-08-08T00:55:57.439Z,1011.81
2022-08-08T00:56:57.423Z,1011.8
2022-08-08T00:57:57.416Z,1011.81
2022-08-08T00:58:57.403Z,1011.78
2022-08-08T00:59:57.394Z,1011.84
2022-08-08T01:00:57.387Z,1011.86
2022-08-08T01:01:57.375Z,1011.9
2022-08-08T01:02:57.365Z,1011.83
2022-08-08T01:03:57.357Z,1011.86
2022-08-08T01:04:57.342Z,1011.85
2022-08-08T01:05:57.331Z,1011.83
2022-08-08T01:06:57.322Z,1011.83
2022-08-08T01:07:57.329Z,1011.85
2022-08-08T01:08:57.306Z,1011.8
2022-08-08T01:09:57.289Z,1011.79
2022-08-08T01:10:57.287Z,1011.87
2022-08-08T01:11:57.276Z,1011.87
2022-08-08T01:12:57.255Z,1011.87
2022-08-08T01:13:57.270Z,1011.86
2022-08-08T01:14:57.248Z,1011.87
2022-08-08T01:15:57.226Z,1011.86
2022-08-08T01:16:57.211Z,1011.86
2022-08-08T01:17:57.208Z,1011.89
2022-08-08T01:18:57.201Z,1011.88
2022-08-08T01:19:57.199Z,1011.9
2022-08-08T01:20:57.176Z,1011.86
2022-08-08T01:21:57.159Z,1011.93
2022-08-08T01:22:57.169Z,1011.86
2022-08-08T01:23:57.139Z,1011.9
2022-08-08T01:24:57.127Z,1011.93
2022-08-08T01:25:57.131Z,1011.92
2022-08-08T01:26:57.115Z,1011.88
2022-08-08T01:27:57.124Z,1011.91
2022-08-08T01:28:57.090Z,1011.89
2022-08-08T01:29:57.083Z,1011.92
2022-08-08T01:30:57.088Z,1011.88
2022-08-08T01:31:57.057Z,1011.91
2022-08-08T01:32:57.049Z,1011.92
2022-08-08T01:33:57.041Z,1011.89
2022-08-08T01:34:57.023Z,1011.96
2022-08-08T01:35:57.021Z,1011.89
2022-08-08T01:36:57.017Z,1011.84
2022-08-08T01:37:56.998Z,1011.89
2022-08-08T01:38:56.998Z,1011.88
2022-08-08T01:39:56.978Z,1011.87
2022-08-08T01:40:56.964Z,1011.86
2022-08-08T01:41:56.955Z,1011.87
2022-08-08T01:42:56.950Z,1011.87
2022-08-08T01:43:56.930Z,1011.85
2022-08-08T01:44:56.923Z,1011.86
2022-08-08T01:45:56.925Z,1011.84
2022-08-08T01:46:56.915Z,1011.81
2022-08-08T01:47:56.895Z,1011.81
2022-08-08T01:48:56.906Z,1011.82
2022-08-08T01:49:56.870Z,1011.85
2022-08-08T01:50:56.858Z,1011.81
2022-08-08T01:51:56.842Z,1011.82
2022-08-08T01:52:56.836Z,1011.75
2022-08-08T01:53:56.825Z,1011.82
2022-08-08T01:54:56.815Z,1011.84
2022-08-08T01:55:56.805Z,1011.8
2022-08-08T01:56:56.794Z,1011.84
2022-08-08T01:57:56.788Z,1011.88
2022-08-08T01:58:56.774Z,1011.85
2022-08-08T01:59:56.761Z,1011.82
2022-08-08T02:00:56.751Z,1011.85
2022-08-08T02:01:56.741Z,1011.88
2022-08-08T02:02:56.727Z,1011.87
2022-08-08T02:03:56.722Z,1011.9
2022-08-08T02:04:56.706Z,1011.88
2022-08-08T02:05:56.705Z,1011.86
2022-08-08T02:06:56.688Z,1011.86
2022-08-08T02:07:56.686Z,1011.92
2022-08-08T02:08:56.685Z,1011.87
2022-08-08T02:09:56.654Z,1011.82
2022-08-08T02:10:56.643Z,1011.87
2022-08-08T02:11:56.644Z,1011.91
2022-08-08T02:12:56.624Z,1011.88
2022-08-08T02:13:56.608Z,1011.88
2022-08-08T02:14:56.605Z,1011.92
2022-08-08T02:15:56.588Z,1011.88
2022-08-08T02:16:56.594Z,1011.91
2022-08-08T02:17:56.568Z,1011.9
2022-08-08T02:18:56.570Z,1011.88
2022-08-08T02:19:56.546Z,1011.91
2022-08-08T02:20:56.537Z,1011.92
2022-08-08T02:21:56.526Z,1011.9
2022-08-08T02:22:56.533Z,1011.86
2022-08-08T02:23:56.517Z,1011.93
2022-08-08T02:24:56.498Z,1011.99
2022-08-08T02:25:56.487Z,1012
2022-08-08T02:26:56.488Z,1012.02
2022-08-08T02:27:56.460Z,1012.04
2022-08-08T02:28:56.458Z,1012.02
2022-08-08T02:29:56.478Z,1012.02
2022-08-08T02:30:56.464Z,1012.01
2022-08-08T02:31:56.417Z,1012.05
2022-08-08T02:32:56.402Z,1011.99
2022-08-08T02:33:56.407Z,1012.05
2022-08-08T02:34:56.386Z,1012.03
2022-08-08T02:35:56.371Z,1012.01
2022-08-08T02:36:56.367Z,1012.01
2022-08-08T02:37:56.366Z,1012.01
2022-08-08T02:38:56.338Z,1011.98
2022-08-08T02:39:56.334Z,1012.03
2022-08-08T02:40:56.335Z,1011.95
2022-08-08T02:41:56.305Z,1012
2022-08-08T02:42:56.294Z,1012.01
2022-08-08T02:43:56.287Z,1011.98
2022-08-08T02:44:56.285Z,1011.96
2022-08-08T02:45:56.287Z,1011.98
2022-08-08T02:46:56.247Z,1011.96
2022-08-08T02:47:56.250Z,1011.97
2022-08-08T02:48:56.250Z,1011.99
2022-08-08T02:49:56.239Z,1012.01
2022-08-08T02:50:56.209Z,1011.98
2022-08-08T02:51:56.210Z,1011.97
2022-08-08T02:52:56.195Z,1011.97
2022-08-08T02:53:56.196Z,1011.98
2022-08-08T02:54:56.168Z,1011.95
2022-08-08T02:55:56.152Z,1011.99
2022-08-08T02:56:56.161Z,1011.96
2022-08-08T02:57:56.141Z,1012
2022-08-08T02:58:56.123Z,1012.05
2022-08-08T02:59:56.116Z,1011.99
2022-08-08T03:00:56.098Z,1012.05
2022-08-08T03:01:56.096Z,1012.02
2022-08-08T03:02:56.084Z,1011.99
2022-08-08T03:03:56.069Z,1012.01
2022-08-08T03:04:56.058Z,1012
2022-08-08T03:05:56.044Z,1011.98
2022-08-08T03:06:56.035Z,1011.99
2022-08-08T03:07:56.023Z,1011.98
2022-08-08T03:08:56.016Z,1011.94
2022-08-08T03:09:55.998Z,1011.97
2022-08-08T03:10:55.995Z,1011.99
2022-08-08T03:11:56.000Z,1011.96
2022-08-08T03:12:55.979Z,1011.94
2022-08-08T03:13:55.962Z,1011.94
2022-08-08T03:14:55.973Z,1011.98
2022-08-08T03:15:55.963Z,1011.92
2022-08-08T03:16:55.930Z,1011.99
2022-08-08T03:17:55.925Z,1011.96
2022-08-08T03:18:55.906Z,1011.99
2022-08-08T03:19:55.896Z,1011.98
2022-08-08T03:20:55.887Z,1012
2022-08-08T03:21:55.883Z,1012.05
2022-08-08T03:22:55.882Z,1011.96
2022-08-08T03:23:55.855Z,1012.01
2022-08-08T03:24:55.857Z,1012.06
2022-08-08T03:25:55.836Z,1012.01
2022-08-08T03:26:55.824Z,1012.03
2022-08-08T03:27:55.812Z,1012.05
2022-08-08T03:28:55.806Z,1012.07
2022-08-08T03:29:55.805Z,1012.03
2022-08-08T03:30:55.788Z,1012.05
2022-08-08T03:31:55.779Z,1012.03
2022-08-08T03:32:55.764Z,1012.07
2022-08-08T03:33:55.765Z,1012.1
2022-08-08T03:34:55.757Z,1012.07
2022-08-08T03:35:55.733Z,1012.11
2022-08-08T03:36:55.723Z,1012.09
2022-08-08T03:37:55.717Z,1012.09
2022-08-08T03:38:55.701Z,1012.1
2022-08-08T03:39:55.694Z,1012.13
2022-08-08T03:40:55.686Z,1012.11
2022-08-08T03:41:55.672Z,1012.14
2022-08-08T03:42:55.668Z,1012.12
2022-08-08T03:43:55.649Z,1012.14
2022-08-08T03:44:55.645Z,1012.16
2022-08-08T03:45:55.635Z,1012.13
2022-08-08T03:46:55.632Z,1012.18
2022-08-08T03:47:55.607Z,1012.2
2022-08-08T03:48:55.611Z,1012.15
2022-08-08T03:49:55.607Z,1012.22
2022-08-08T03:50:55.578Z,1012.19
2022-08-08T03:51:55.572Z,1012.24
2022-08-08T03:52:55.563Z,1012.23
2022-08-08T03:53:55.554Z,1012.23
2022-08-08T03:54:55.555Z,1012.23
2022-08-08T03:55:55.527Z,1012.23
2022-08-08T03:56:55.515Z,1012.26
2022-08-08T03:57:55.502Z,1012.27
2022-08-08T03:58:55.491Z,1012.28
2022-08-08T03:59:55.487Z,1012.29
2022-08-08T04:00:55.483Z,1012.3
2022-08-08T04:01:55.469Z,1012.31
2022-08-08T04:02:55.454Z,1012.28
2022-08-08T04:03:55.443Z,1012.29
2022-08-08T04:04:55.444Z,1012.31
2022-08-08T04:05:55.419Z,1012.31
2022-08-08T04:06:55.409Z,1012.3
2022-08-08T04:07:55.401Z,1012.35
2022-08-08T04:08:55.417Z,1012.33
2022-08-08T04:09:55.394Z,1012.32
2022-08-08T04:10:55.371Z,1012.45
2022-08-08T04:11:55.363Z,1012.34
2022-08-08T04:12:55.358Z,1012.42
2022-08-08T04:13:55.335Z,1012.41
2022-08-08T04:14:55.326Z,1012.38
2022-08-08T04:15:55.327Z,1012.45
2022-08-08T04:16:55.300Z,1012.42
2022-08-08T04:17:55.284Z,1012.39
2022-08-08T04:18:55.289Z,1012.44
2022-08-08T04:19:55.290Z,1012.47
2022-08-08T04:20:55.256Z,1012.46
2022-08-08T04:21:55.245Z,1012.4
2022-08-08T04:22:55.240Z,1012.36
2022-08-08T04:23:55.223Z,1012.45
2022-08-08T04:24:55.227Z,1012.44
2022-08-08T04:25:55.197Z,1012.44
2022-08-08T04:26:55.196Z,1012.45
2022-08-08T04:27:55.178Z,1012.46
2022-08-08T04:28:55.175Z,1012.48
2022-08-08T04:29:55.168Z,1012.48
2022-08-08T04:30:55.144Z,1012.47
2022-08-08T04:31:55.134Z,1012.49
2022-08-08T04:32:55.124Z,1012.48
2022-08-08T04:33:55.126Z,1012.47
2022-08-08T04:34:55.102Z,1012.43
2022-08-08T04:35:55.095Z,1012.43
2022-08-08T04:36:55.098Z,1012.42
2022-08-08T04:37:55.079Z,1012.5
2022-08-08T04:38:55.062Z,1012.42
2022-08-08T04:39:55.052Z,1012.53
2022-08-08T04:40:55.046Z,1012.47
2022-08-08T04:41:55.025Z,1012.5
2022-08-08T04:42:55.030Z,1012.53
2022-08-08T04:43:55.010Z,1012.49
2022-08-08T04:44:55.009Z,1012.49
2022-08-08T04:45:54.996Z,1012.5
2022-08-08T04:46:54.977Z,1012.47
2022-08-08T04:47:54.970Z,1012.45
2022-08-08T04:48:54.956Z,1012.46
2022-08-08T04:49:54.947Z,1012.45
2022-08-08T04:50:54.934Z,1012.45
2022-08-08T04:51:54.928Z,1012.41
2022-08-08T04:52:54.932Z,1012.47
2022-08-08T04:53:54.919Z,1012.44
2022-08-08T04:54:54.894Z,1012.45
2022-08-08T04:55:54.884Z,1012.48
2022-08-08T04:56:54.887Z,1012.52
2022-08-08T04:57:54.870Z,1012.53
2022-08-08T04:58:54.876Z,1012.57
2022-08-08T04:59:54.836Z,1012.55
2022-08-08T05:00:54.827Z,1012.59
2022-08-08T05:01:54.824Z,1012.53
2022-08-08T05:02:54.810Z,1012.53
2022-08-08T05:03:54.801Z,1012.53
2022-08-08T05:04:54.803Z,1012.6
2022-08-08T05:05:54.776Z,1012.53
2022-08-08T05:06:54.787Z,1012.53
2022-08-08T05:07:54.758Z,1012.59
2022-08-08T05:08:54.745Z,1012.6
2022-08-08T05:09:54.741Z,1012.58
2022-08-08T05:10:54.729Z,1012.56
2022-08-08T05:11:54.732Z,1012.58
2022-08-08T05:12:54.713Z,1012.61
2022-08-08T05:13:54.704Z,1012.58
2022-08-08T05:14:54.688Z,1012.65
2022-08-08T05:15:54.708Z,1012.61
2022-08-08T05:16:54.685Z,1012.66
2022-08-08T05:17:54.655Z,1012.64
2022-08-08T05:18:54.678Z,1012.62
2022-08-08T05:19:54.636Z,1012.66
2022-08-08T05:20:54.619Z,1012.65
2022-08-08T05:21:54.619Z,1012.68
2022-08-08T05:22:54.602Z,1012.64
2022-08-08T05:23:54.610Z,1012.6
2022-08-08T05:24:54.595Z,1012.65
2022-08-08T05:25:54.572Z,1012.66
2022-08-08T05:26:54.570Z,1012.62
2022-08-08T05:27:54.559Z,1012.62
2022-08-08T05:28:54.550Z,1012.67
2022-08-08T05:29:54.538Z,1012.64
2022-08-08T05:30:54.537Z,1012.65
2022-08-08T05:31:54.519Z,1012.63
2022-08-08T05:32:54.504Z,1012.68
2022-08-08T05:33:54.491Z,1012.66
2022-08-08T05:34:54.486Z,1012.67
2022-08-08T05:35:54.478Z,1012.71
2022-08-08T05:36:54.466Z,1012.74
2022-08-08T05:37:54.453Z,1012.71
2022-08-08T05:38:54.437Z,1012.65
2022-08-08T05:39:54.437Z,1012.7
2022-08-08T05:40:54.476Z,1012.62
2022-08-08T05:41:54.440Z,1012.65
2022-08-08T05:42:54.401Z,1012.63
2022-08-08T05:43:54.384Z,1012.61
2022-08-08T05:44:54.376Z,1012.62
2022-08-08T05:45:54.375Z,1012.58
2022-08-08T05:46:54.386Z,1012.6
2022-08-08T05:47:54.344Z,1012.66
2022-08-08T05:48:54.354Z,1012.69
2022-08-08T05:49:54.344Z,1012.64
2022-08-08T05:50:54.314Z,1012.64
2022-08-08T05:51:54.325Z,1012.66
2022-08-08T05:52:54.316Z,1012.67
2022-08-08T05:53:54.326Z,1012.69
2022-08-08T05:54:54.269Z,1012.71
2022-08-08T05:55:54.260Z,1012.7
2022-08-08T05:56:54.251Z,1012.71
2022-08-08T05:57:54.255Z,1012.76
2022-08-08T05:58:54.231Z,1012.77
2022-08-08T05:59:54.220Z,1012.72
2022-08-08T06:00:54.257Z,1012.75
2022-08-08T06:01:54.198Z,1012.75
2022-08-08T06:02:54.187Z,1012.79
2022-08-08T06:03:54.177Z,1012.8
2022-08-08T06:04:54.171Z,1012.8
2022-08-08T06:05:54.179Z,1012.77
2022-08-08T06:06:54.444Z,1012.78
2022-08-08T06:07:54.181Z,1012.77
2022-08-08T06:08:54.129Z,1012.71
2022-08-08T06:09:54.119Z,1012.73
2022-08-08T06:10:54.108Z,1012.74
2022-08-08T06:11:54.092Z,1012.77
2022-08-08T06:12:54.080Z,1012.78
2022-08-08T06:13:54.077Z,1012.82
2022-08-08T06:14:54.063Z,1012.82
2022-08-08T06:15:54.047Z,1012.83
2022-08-08T06:16:54.043Z,1012.91
2022-08-08T06:17:54.028Z,1012.89
2022-08-08T06:18:54.026Z,1012.92
2022-08-08T06:19:54.015Z,1012.82
2022-08-08T06:20:53.997Z,1012.87
2022-08-08T06:21:53.986Z,1012.89
2022-08-08T06:22:53.975Z,1012.85
2022-08-08T06:23:54.040Z,1012.9
2022-08-08T06:24:53.970Z,1012.87
2022-08-08T06:25:53.959Z,1012.89
2022-08-08T06:26:53.952Z,1012.92
2022-08-08T06:27:53.923Z,1012.95
2022-08-08T06:28:53.911Z,1012.86
2022-08-08T06:29:53.920Z,1012.87
2022-08-08T06:30:53.894Z,1012.87
2022-08-08T06:31:53.873Z,1012.88
2022-08-08T06:32:53.865Z,1012.86
2022-08-08T06:33:53.867Z,1012.88
2022-08-08T06:34:53.844Z,1012.91
2022-08-08T06:35:53.839Z,1012.9
2022-08-08T06:36:53.819Z,1012.93
2022-08-08T06:37:54.490Z,1012.94
2022-08-08T06:38:53.801Z,1012.93
2022-08-08T06:39:53.797Z,1012.89
2022-08-08T06:40:53.789Z,1012.94
2022-08-08T06:41:53.766Z,1012.95
2022-08-08T06:42:53.762Z,1013.01
2022-08-08T06:43:53.756Z,1012.97
2022-08-08T06:44:53.757Z,1012.9
2022-08-08T06:45:53.733Z,1013.02
2022-08-08T06:46:53.719Z,1012.96
2022-08-08T06:47:53.723Z,1012.98
2022-08-08T06:48:53.701Z,1012.96
2022-08-08T06:49:53.684Z,1012.99
2022-08-08T06:50:53.678Z,1012.98
2022-08-08T06:51:53.656Z,1012.98
2022-08-08T06:52:53.672Z,1013.02
2022-08-08T06:53:53.640Z,1012.96
2022-08-08T06:54:53.630Z,1012.99
2022-08-08T06:55:53.621Z,1013.02
2022-08-08T06:56:53.615Z,1013.03
2022-08-08T06:57:53.627Z,1012.94
2022-08-08T06:58:53.593Z,1012.99
2022-08-08T06:59:53.587Z,1012.93
2022-08-08T07:00:53.568Z,1012.94
2022-08-08T07:01:53.560Z,1012.97
2022-08-08T07:02:53.560Z,1012.98
2022-08-08T07:03:53.554Z,1013.01
2022-08-08T07:04:53.520Z,1013.01
2022-08-08T07:05:53.517Z,1013.03
2022-08-08T07:06:53.508Z,1013.07
2022-08-08T07:07:53.516Z,1012.95
2022-08-08T07:08:53.479Z,1013.03
2022-08-08T07:09:53.478Z,1013.04
2022-08-08T07:10:53.470Z,1013.03
2022-08-08T07:11:53.451Z,1013.05
2022-08-08T07:12:53.444Z,1013.02
2022-08-08T07:13:53.446Z,1013.01
2022-08-08T07:14:53.424Z,1013.05
2022-08-08T07:15:53.408Z,1013
2022-08-08T07:16:53.400Z,1013.07
2022-08-08T07:17:53.395Z,1013.06
2022-08-08T07:18:53.375Z,1013.1
2022-08-08T07:19:53.366Z,1013.06
2022-08-08T07:20:53.355Z,1013.1
2022-08-08T07:21:53.364Z,1013.08
2022-08-08T07:22:53.334Z,1013.13
2022-08-08T07:23:53.324Z,1013.08
2022-08-08T07:24:53.323Z,1013.09
2022-08-08T07:25:53.307Z,1013.12
2022-08-08T07:26:53.289Z,1013.03
2022-08-08T07:27:53.280Z,1013.03
2022-08-08T07:28:53.272Z,1013.12
2022-08-08T07:29:53.259Z,1013.09
2022-08-08T07:30:53.266Z,1013.13
2022-08-08T07:31:53.244Z,1013.14
2022-08-08T07:32:53.244Z,1013.13
2022-08-08T07:33:53.214Z,1013.09
2022-08-08T07:34:53.206Z,1013.14
2022-08-08T07:35:53.209Z,1013.12
2022-08-08T07:36:53.184Z,1013.11
2022-08-08T07:37:53.181Z,1013.07
2022-08-08T07:38:53.171Z,1013.1
2022-08-08T07:39:53.165Z,1013.09
2022-08-08T07:40:53.159Z,1013.12
2022-08-08T07:41:53.150Z,1013.03
2022-08-08T07:42:53.132Z,1013.09
2022-08-08T07:43:53.126Z,1013.05
2022-08-08T07:44:53.118Z,1013.07
2022-08-08T07:45:53.098Z,1013.1
2022-08-08T07:46:53.143Z,1013.09
2022-08-08T07:47:53.996Z,1013.11
2022-08-08T07:48:53.058Z,1013.13
2022-08-08T07:49:53.049Z,1013.11
2022-08-08T07:50:53.036Z,1013.11
2022-08-08T07:51:53.024Z,1013.18
2022-08-08T07:52:53.017Z,1013.15
2022-08-08T07:53:53.006Z,1013.2
2022-08-08T07:54:53.001Z,1013.24
2022-08-08T07:55:52.982Z,1013.15
2022-08-08T07:56:53.032Z,1013.18
2022-08-08T07:57:52.960Z,1013.21
2022-08-08T07:58:52.960Z,1013.23
2022-08-08T07:59:52.958Z,1013.21
2022-08-08T08:00:52.928Z,1013.22
2022-08-08T08:01:52.930Z,1013.22
2022-08-08T08:02:52.948Z,1013.28
2022-08-08T08:03:52.920Z,1013.28
2022-08-08T08:04:52.895Z,1013.19
2022-08-08T08:05:52.928Z,1013.14
2022-08-08T08:06:52.870Z,1013.14
2022-08-08T08:07:52.862Z,1013.2
2022-08-08T08:08:52.843Z,1013.21
2022-08-08T08:09:52.836Z,1013.24
2022-08-08T08:10:52.842Z,1013.21
2022-08-08T08:11:52.816Z,1013.12
2022-08-08T08:12:52.804Z,1013.21
2022-08-08T08:13:52.802Z,1013.22
2022-08-08T08:14:52.810Z,1013.21
2022-08-08T08:15:52.791Z,1013.19
2022-08-08T08:16:52.799Z,1013.23
2022-08-08T08:17:52.750Z,1013.25
2022-08-08T08:18:52.744Z,1013.2
2022-08-08T08:19:52.768Z,1013.21
2022-08-08T08:20:52.723Z,1013.24
2022-08-08T08:21:52.711Z,1013.19
2022-08-08T08:22:52.707Z,1013.25
2022-08-08T08:23:52.688Z,1013.23
2022-08-08T08:24:52.679Z,1013.17
2022-08-08T08:25:52.684Z,1013.24
2022-08-08T08:26:52.655Z,1013.22
2022-08-08T08:27:52.645Z,1013.26
2022-08-08T08:28:52.678Z,1013.15
2022-08-08T08:29:52.686Z,1013.16
2022-08-08T08:30:52.611Z,1013.14
2022-08-08T08:31:52.604Z,1013.16
2022-08-08T08:32:52.620Z,1013.15
2022-08-08T08:33:52.582Z,1013.17
2022-08-08T08:34:52.578Z,1013.06
2022-08-08T08:35:52.570Z,1013.11
2022-08-08T08:36:52.551Z,1013.14
2022-08-08T08:37:52.555Z,1013.14
2022-08-08T08:38:52.526Z,1013.13
2022-08-08T08:39:52.525Z,1013.13
2022-08-08T08:40:52.519Z,1013.16
2022-08-08T08:41:52.498Z,1013.14
2022-08-08T08:42:52.491Z,1013.17
2022-08-08T08:43:52.479Z,1013.17
2022-08-08T08:44:52.477Z,1013.17
2022-08-08T08:45:52.495Z,1013.18
2022-08-08T08:46:52.446Z,1013.16
2022-08-08T08:47:52.431Z,1013.22
2022-08-08T08:48:52.439Z,1013.26
2022-08-08T08:49:52.414Z,1013.23
2022-08-08T08:50:52.432Z,1013.14
2022-08-08T08:51:52.434Z,1013.1
2022-08-08T08:52:52.375Z,1013.09
2022-08-08T08:53:52.371Z,1013.15
2022-08-08T08:54:52.358Z,1013.16
2022-08-08T08:55:52.359Z,1013.1
2022-08-08T08:56:52.338Z,1013.18
2022-08-08T08:57:52.395Z,1013.16
2022-08-08T08:58:52.324Z,1013.21
2022-08-08T08:59:52.306Z,1013.14
2022-08-08T09:00:52.309Z,1013.13
2022-08-08T09:01:52.289Z,1013.12
2022-08-08T09:02:52.308Z,1013.14
2022-08-08T09:03:52.291Z,1013.14
2022-08-08T09:04:52.251Z,1013.19
2022-08-08T09:05:52.245Z,1013.19
2022-08-08T09:06:52.231Z,1013.22
2022-08-08T09:07:52.239Z,1013.17
2022-08-08T09:08:52.257Z,1013.2
2022-08-08T09:09:52.202Z,1013.17
2022-08-08T09:10:52.255Z,1013.21
2022-08-08T09:11:52.176Z,1013.19
2022-08-08T09:12:52.168Z,1013.12
2022-08-08T09:13:52.158Z,1013.19
2022-08-08T09:14:52.155Z,1013.17
2022-08-08T09:15:52.135Z,1013.16
2022-08-08T09:16:52.140Z,1013.19
2022-08-08T09:17:52.136Z,1013.14
2022-08-08T09:18:52.135Z,1013.19
2022-08-08T09:19:52.137Z,1013.16
2022-08-08T09:20:52.092Z,1013.14
2022-08-08T09:21:52.076Z,1013.2
2022-08-08T09:22:52.065Z,1013.2
2022-08-08T09:23:52.056Z,1013.18
2022-08-08T09:24:52.043Z,1013.21
2022-08-08T09:25:52.038Z,1013.18
2022-08-08T09:26:52.026Z,1013.27
2022-08-08T09:27:52.013Z,1013.19
2022-08-08T09:28:52.007Z,1013.22
2022-08-08T09:29:52.045Z,1013.18
2022-08-08T09:30:51.979Z,1013.21
2022-08-08T09:31:51.971Z,1013.13
2022-08-08T09:32:51.968Z,1013.17
2022-08-08T09:33:51.949Z,1013.18
2022-08-08T09:34:51.940Z,1013.18
2022-08-08T09:35:51.932Z,1013.19
2022-08-08T09:36:51.922Z,1013.24
2022-08-08T09:37:51.909Z,1013.17
2022-08-08T09:38:51.899Z,1013.19
2022-08-08T09:39:51.893Z,1013.18
2022-08-08T09:40:51.896Z,1013.17
2022-08-08T09:41:51.871Z,1013.08
2022-08-08T09:42:51.859Z,1013.1
2022-08-08T09:43:51.861Z,1013.12
2022-08-08T09:44:51.840Z,1013.13
2022-08-08T09:45:51.941Z,1013.13
2022-08-08T09:46:51.835Z,1013.14
2022-08-08T09:47:51.836Z,1013.2
2022-08-08T09:48:51.789Z,1013.19
2022-08-08T09:49:51.799Z,1013.19
2022-08-08T09:50:51.792Z,1013.18
2022-08-08T09:51:51.773Z,1013.2
2022-08-08T09:52:51.751Z,1013.13
2022-08-08T09:53:51.747Z,1013.18
2022-08-08T09:54:51.736Z,1013.11
2022-08-08T09:55:51.721Z,1013.14
2022-08-08T09:56:51.723Z,1013.13
2022-08-08T09:57:51.709Z,1013.08
2022-08-08T09:58:51.688Z,1013.13
2022-08-08T09:59:51.696Z,1013.1
2022-08-08T10:00:51.678Z,1013.09
2022-08-08T10:01:51.664Z,1013.1
2022-08-08T10:02:51.654Z,1013.12
2022-08-08T10:03:51.759Z,1013.1
2022-08-08T10:04:51.631Z,1013.09
2022-08-08T10:05:51.688Z,1013.14
2022-08-08T10:06:51.607Z,1013.13
2022-08-08T10:07:51.599Z,1013.07
2022-08-08T10:08:51.590Z,1013.08
2022-08-08T10:09:51.576Z,1013.07
2022-08-08T10:10:51.584Z,1013.09
2022-08-08T10:11:51.568Z,1013.1
2022-08-08T10:12:51.548Z,1013.08
2022-08-08T10:13:51.544Z,1013.09
2022-08-08T10:14:51.541Z,1013.11
2022-08-08T10:15:51.525Z,1013.04
2022-08-08T10:16:51.515Z,1013.03
2022-08-08T10:17:51.575Z,1013.03
2022-08-08T10:18:51.482Z,1013.06
2022-08-08T10:19:51.479Z,1013.08
2022-08-08T10:20:51.466Z,1013.12
2022-08-08T10:21:51.466Z,1013.16
2022-08-08T10:22:51.444Z,1013.08
2022-08-08T10:23:51.431Z,1013.13
2022-08-08T10:24:51.431Z,1013.11
2022-08-08T10:25:51.423Z,1013.06
2022-08-08T10:26:51.415Z,1013.16
2022-08-08T10:27:51.390Z,1013.09
2022-08-08T10:28:51.392Z,1013.06
2022-08-08T10:29:51.394Z,1013.11
2022-08-08T10:30:51.364Z,1013.09
2022-08-08T10:31:51.354Z,1013.04
2022-08-08T10:32:51.372Z,1013.15
2022-08-08T10:33:51.335Z,1013.15
2022-08-08T10:34:51.336Z,1013.11
2022-08-08T10:35:51.316Z,1013.09
2022-08-08T10:36:51.304Z,1013.11
2022-08-08T10:37:51.296Z,1013.1
2022-08-08T10:38:52.296Z,1013.1
2022-08-08T10:39:51.301Z,1013.1
2022-08-08T10:40:51.324Z,1013.1
2022-08-08T10:41:51.263Z,1013.07
2022-08-08T10:42:51.283Z,1013.01
2022-08-08T10:43:51.239Z,1013.06
2022-08-08T10:44:51.275Z,1013.05
2022-08-08T10:45:51.226Z,1013.06
2022-08-08T10:46:51.220Z,1013.08
2022-08-08T10:47:51.199Z,1013.07
2022-08-08T10:48:51.200Z,1013.04
2022-08-08T10:49:51.209Z,1013.04
2022-08-08T10:50:51.167Z,1012.99
2022-08-08T10:51:51.175Z,1012.99
2022-08-08T10:52:51.149Z,1012.98
2022-08-08T10:53:51.133Z,1013.03
2022-08-08T10:54:51.126Z,1013.05
2022-08-08T10:55:51.122Z,1013
2022-08-08T10:56:51.126Z,1013.04
2022-08-08T10:57:51.108Z,1013.01
2022-08-08T10:58:51.089Z,1013.05
2022-08-08T10:59:51.121Z,1013.05
2022-08-08T11:00:51.065Z,1013.02
2022-08-08T11:01:51.072Z,1012.99
2022-08-08T11:02:51.059Z,1012.9
2022-08-08T11:03:51.040Z,1013
2022-08-08T11:04:51.041Z,1013.08
2022-08-08T11:05:51.017Z,1013.02
2022-08-08T11:06:51.012Z,1013.08
2022-08-08T11:07:51.003Z,1013.06
2022-08-08T11:08:50.984Z,1013.08
2022-08-08T11:09:50.972Z,1013.11
2022-08-08T11:10:50.965Z,1013.04
2022-08-08T11:11:50.965Z,1013
2022-08-08T11:12:50.971Z,1013.07
2022-08-08T11:13:50.934Z,1013.09
2022-08-08T11:14:50.977Z,1013.1
2022-08-08T11:15:50.910Z,1013.13
2022-08-08T11:16:50.941Z,1013.08
2022-08-08T11:17:50.888Z,1013.01
2022-08-08T11:18:50.880Z,1013.1
2022-08-08T11:19:50.877Z,1013.03
2022-08-08T11:20:50.867Z,1013.06
2022-08-08T11:21:50.862Z,1013.02
2022-08-08T11:22:50.843Z,1013.05
2022-08-08T11:23:50.839Z,1013.03
2022-08-08T11:24:50.914Z,1013.05
2022-08-08T11:25:50.825Z,1013.07
2022-08-08T11:26:50.801Z,1013.06
2022-08-08T11:27:50.800Z,1012.99
2022-08-08T11:28:50.794Z,1013.08
2022-08-08T11:29:50.781Z,1013.03
2022-08-08T11:30:50.772Z,1013.06
2022-08-08T11:31:50.764Z,1013.03
2022-08-08T11:32:50.761Z,1012.99
2022-08-08T11:33:50.746Z,1013.01
2022-08-08T11:34:50.729Z,1013
2022-08-08T11:35:50.726Z,1013.03
2022-08-08T11:36:50.753Z,1012.99
2022-08-08T11:37:50.702Z,1013
2022-08-08T11:38:50.689Z,1012.95
2022-08-08T11:39:50.680Z,1013
2022-08-08T11:40:50.671Z,1012.99
2022-08-08T11:41:50.669Z,1012.93
2022-08-08T11:42:50.653Z,1012.98
2022-08-08T11:43:50.642Z,1012.95
2022-08-08T11:44:50.641Z,1013.05
2022-08-08T11:45:50.622Z,1013.04
2022-08-08T11:46:50.613Z,1012.98
2022-08-08T11:47:50.600Z,1013.01
2022-08-08T11:48:50.591Z,1012.97
2022-08-08T11:49:50.584Z,1013
2022-08-08T11:50:50.568Z,1012.97
2022-08-08T11:51:50.566Z,1012.94
2022-08-08T11:52:50.548Z,1012.93
2022-08-08T11:53:50.542Z,1012.97
2022-08-08T11:54:50.537Z,1012.99
2022-08-08T11:55:50.537Z,1012.94
2022-08-08T11:56:50.521Z,1012.9
2022-08-08T11:57:50.512Z,1012.94
2022-08-08T11:58:50.494Z,1012.99
2022-08-08T11:59:50.482Z,1013.02
2022-08-08T12:00:50.505Z,1013.02
2022-08-08T12:01:50.475Z,1013.08
2022-08-08T12:02:50.458Z,1013.1
2022-08-08T12:03:50.452Z,1013.01
2022-08-08T12:04:50.434Z,1013.02
2022-08-08T12:05:50.444Z,1013
2022-08-08T12:06:50.435Z,1012.97
2022-08-08T12:07:50.405Z,1012.95
2022-08-08T12:08:50.406Z,1012.93
2022-08-08T12:09:50.394Z,1013.01